This is the latest recevied weather packets stored in our database for station/object N8DMH-13. If no packets are shown the sender has not sent any weather packets the latest 10 day(s).
| Time | Temp. | Humidity | Pressure | Rain* | Wind** | Luminosity | Snow |
|---|---|---|---|---|---|---|---|
| 1787440560 | 22.22° C | 68% | 1011.2 hPa | 0 mm | - | - | - |
| 1787440260 | 22.22° C | 69% | 1011.3 hPa | 0 mm | - | - | - |
| 1787439964 | 22.22° C | 69% | 1011.3 hPa | 0 mm | - | - | - |
| 1787439629 | 22.22° C | 69% | 1011.4 hPa | 0 mm | - | - | - |
| 1787439330 | 22.22° C | 69% | 1011.4 hPa | 0 mm | - | - | - |
| 1787438999 | 21.67° C | 70% | 1011.3 hPa | 0 mm | - | - | - |
| 1787438699 | 21.67° C | 70% | 1011.3 hPa | 0 mm | - | - | - |
| 1787438369 | 21.67° C | 71% | 1011.3 hPa | 0 mm | - | - | - |
| 1787438042 | 21.11° C | 74% | 1011.2 hPa | 0 mm | - | - | - |
| 1787438030 | 20.56° C | 79% | 1011.3 hPa | 0 mm | - | - | - |
| 1787437738 | 20.56° C | 79% | 1011.3 hPa | 0 mm | - | - | - |
| 1787437438 | 20° C | 80% | 1011.2 hPa | 0 mm | - | - | - |
| 1787437108 | 20° C | 80% | 1011.3 hPa | 0 mm | - | - | - |
| 1787436778 | 20.56° C | 79% | 1011.2 hPa | 0 mm | - | - | - |
| 1787436478 | 20.56° C | 79% | 1011.1 hPa | 0 mm | - | - | - |
| 1787436178 | 20.56° C | 78% | 1011 hPa | 0 mm | - | - | - |
| 1787435848 | 21.11° C | 78% | 1010.9 hPa | 0 mm | - | - | - |
| 1787435548 | 21.11° C | 78% | 1010.8 hPa | 0 mm | - | - | - |
| 1787435248 | 21.11° C | 78% | 1010.9 hPa | 0 mm | - | - | - |
| 1787434918 | 21.11° C | 78% | 1010.9 hPa | 0 mm | - | - | - |
| 1787434618 | 20.56° C | 78% | 1010.7 hPa | 0 mm | - | - | - |
| 1787434317 | 20° C | 80% | 1010.7 hPa | 0 mm | - | - | - |
| 1787434019 | 20° C | 79% | 1010.6 hPa | 0 mm | - | - | - |
| 1787433687 | 20° C | 77% | 1010.8 hPa | 0 mm | - | - | - |
| 1787433357 | 20.56° C | 77% | 1010.9 hPa | 0 mm | - | - | - |
* Rain latest hour (hover to see other rain measurements)
** Current wind speed in m/s (hover to see current wind gust speed)